Time;durP1;ratioP1;P1;durP2;ratioP2;P2;SDS_P1;SDS_P2;PMS_P1;PMS_P2;Temp;Humidity;BMP_temperature;BMP_pressure;BME280_temperature;BME280_humidity;BME280_pressure;Samples;Min_cycle;Max_cycle;Signal;HPM_P1;HPM_P2
2023/05/26 00:01:16;;;;;;;12.60;3.65;;;;;;;19.90;58.46;101178.50;5048505;28;20477;-81
2023/05/26 00:03:48;;;;;;;8.93;3.45;;;;;;;19.80;58.73;101173.59;5055093;28;20491;-81
2023/05/26 00:06:14;;;;;;;8.45;3.53;;;;;;;19.85;58.68;101181.00;5058131;28;20397;-81
2023/05/26 00:08:40;;;;;;;8.07;3.55;;;;;;;19.72;59.14;101163.09;5047623;28;20885;-81
2023/05/26 00:11:07;;;;;;;11.27;3.60;;;;;;;19.67;59.42;101155.66;5059453;28;20423;-81
2023/05/26 00:13:32;;;;;;;11.38;3.50;;;;;;;19.72;59.54;101164.97;5059939;28;20741;-81
2023/05/26 00:15:58;;;;;;;10.23;3.55;;;;;;;19.59;60.24;101161.34;5051801;28;20851;-81
2023/05/26 00:18:26;;;;;;;9.43;3.70;;;;;;;19.62;60.03;101168.13;5054176;28;20707;-81
2023/05/26 00:20:55;;;;;;;9.90;3.70;;;;;;;19.59;60.07;101161.34;5046849;28;20462;-81
2023/05/26 00:23:20;;;;;;;9.30;3.70;;;;;;;19.63;60.07;101159.03;5047378;28;20485;-82
2023/05/26 00:25:46;;;;;;;8.27;3.35;;;;;;;19.60;60.21;101159.47;5055755;28;20417;-82
2023/05/26 00:28:11;;;;;;;8.50;3.60;;;;;;;19.60;60.34;101170.22;5052447;28;20420;-82
2023/05/26 00:30:37;;;;;;;6.23;3.27;;;;;;;19.42;61.06;101169.09;5057942;28;20944;-82
2023/05/26 00:33:02;;;;;;;8.82;3.60;;;;;;;19.41;61.10;101174.69;5061545;28;20421;-82
2023/05/26 00:35:28;;;;;;;8.60;3.30;;;;;;;19.40;61.24;101175.75;5056919;28;20477;-81
2023/05/26 00:37:53;;;;;;;8.40;3.33;;;;;;;19.23;61.48;101161.97;5055658;28;20449;-80
2023/05/26 00:40:19;;;;;;;11.27;3.83;;;;;;;19.29;61.54;101172.69;5061203;28;20847;-80
2023/05/26 00:42:44;;;;;;;10.03;3.57;;;;;;;19.16;62.13;101172.78;5048389;28;20723;-80
2023/05/26 00:45:10;;;;;;;10.33;3.50;;;;;;;19.16;62.37;101169.25;5044651;28;20424;-81
2023/05/26 00:47:36;;;;;;;10.87;3.37;;;;;;;19.05;62.48;101163.56;5046683;28;20744;-81
2023/05/26 00:50:03;;;;;;;8.97;4.00;;;;;;;18.97;62.77;101165.66;5043615;28;20390;-82
2023/05/26 00:52:30;;;;;;;10.43;3.50;;;;;;;18.84;63.33;101158.50;5044390;28;20381;-81
2023/05/26 00:54:56;;;;;;;8.40;3.60;;;;;;;18.86;63.15;101164.47;5057729;28;20884;-80
2023/05/26 00:57:22;;;;;;;6.45;3.40;;;;;;;18.89;63.02;101172.94;5044584;28;20404;-82
2023/05/26 00:59:49;;;;;;;11.30;3.83;;;;;;;18.96;62.63;101170.22;5046260;28;20851;-81
2023/05/26 01:02:15;;;;;;;10.35;3.72;;;;;;;18.95;62.58;101168.56;5040523;28;20487;-82
2023/05/26 01:04:41;;;;;;;9.73;3.90;;;;;;;18.96;62.73;101180.13;5048902;28;20425;-81
2023/05/26 01:07:07;;;;;;;9.00;3.63;;;;;;;18.88;62.70;101179.31;5041980;28;20483;-81
2023/05/26 01:09:33;;;;;;;10.40;3.88;;;;;;;18.87;62.96;101180.38;5049315;28;20464;-82
2023/05/26 01:12:15;;;;;;;11.95;4.10;;;;;;;18.89;62.70;101174.81;5055618;28;20384;-81
2023/05/26 01:14:52;;;;;;;9.20;3.63;;;;;;;18.95;62.52;101170.44;5060333;28;20412;-78
2023/05/26 01:17:20;;;;;;;8.75;3.47;;;;;;;18.92;62.65;101174.34;5049623;28;20420;-82
2023/05/26 01:20:17;;;;;;;11.82;3.97;;;;;;;18.83;63.08;101179.13;5050537;28;20380;-82
2023/05/26 01:22:59;;;;;;;8.27;3.93;;;;;;;18.86;62.91;101176.03;5033564;28;20381;-83
2023/05/26 01:25:47;;;;;;;9.33;3.87;;;;;;;18.97;62.48;101179.09;5057383;28;20480;-81
2023/05/26 01:28:21;;;;;;;10.77;4.28;;;;;;;18.89;62.74;101180.16;5040352;28;20409;-82
2023/05/26 01:30:49;;;;;;;7.97;3.53;;;;;;;18.80;62.99;101178.72;5045123;28;20401;-82
2023/05/26 01:33:15;;;;;;;9.02;3.50;;;;;;;18.76;63.04;101170.25;5052301;28;20392;-82
2023/05/26 01:35:40;;;;;;;9.63;3.85;;;;;;;18.87;62.66;101166.09;5042788;28;20390;-82
2023/05/26 01:38:07;;;;;;;8.37;3.60;;;;;;;18.93;62.41;101170.63;5039249;28;20449;-82
2023/05/26 01:40:33;;;;;;;10.90;3.75;;;;;;;18.90;62.36;101163.00;5055026;28;20384;-82
2023/05/26 01:43:08;;;;;;;9.52;3.90;;;;;;;18.85;62.39;101160.13;5047092;28;20401;-81
2023/05/26 01:45:43;;;;;;;9.43;3.97;;;;;;;18.88;62.45;101162.38;5048792;28;20385;-82
2023/05/26 01:48:12;;;;;;;12.35;4.10;;;;;;;18.88;62.43;101167.75;5039078;28;20410;-82
2023/05/26 01:51:06;;;;;;;9.77;4.00;;;;;;;18.89;62.48;101159.50;5047459;28;20394;-81
2023/05/26 01:53:33;;;;;;;8.90;3.88;;;;;;;18.88;62.40;101165.09;5033588;28;20398;-81
2023/05/26 01:56:00;;;;;;;9.00;3.35;;;;;;;18.85;62.38;101160.97;5048001;28;20384;-82
2023/05/26 01:58:27;;;;;;;8.95;3.80;;;;;;;18.87;62.56;101163.41;5021689;28;20379;-81
2023/05/26 02:00:53;;;;;;;8.52;3.83;;;;;;;18.87;62.55;101166.09;5048715;28;20425;-81
2023/05/26 02:03:20;;;;;;;10.47;3.93;;;;;;;18.91;62.27;101164.66;5046116;28;20377;-81
2023/05/26 02:05:45;;;;;;;10.90;3.83;;;;;;;18.91;62.09;101165.47;5052261;28;20388;-81
2023/05/26 02:08:11;;;;;;;10.53;4.00;;;;;;;18.92;62.09;101166.28;5055171;28;20415;-81
2023/05/26 02:10:37;;;;;;;9.25;3.75;;;;;;;18.99;61.75;101164.41;5047007;28;20487;-81
2023/05/26 02:13:03;;;;;;;8.20;3.80;;;;;;;18.99;62.02;101175.13;5046851;28;20442;-81
2023/05/26 02:15:29;;;;;;;10.53;3.93;;;;;;;18.96;61.93;101174.75;5049175;28;20392;-81
2023/05/26 02:17:57;;;;;;;8.00;3.83;;;;;;;18.95;61.81;101175.81;5039070;28;20394;-82
2023/05/26 02:20:26;;;;;;;10.73;3.80;;;;;;;19.02;61.73;101185.47;5051221;28;20918;-80
2023/05/26 02:22:52;;;;;;;9.55;3.70;;;;;;;18.98;61.68;101183.41;5049432;28;20393;-81
2023/05/26 02:25:17;;;;;;;9.30;3.87;;;;;;;19.01;61.72;101199.09;5036958;28;20386;-81
2023/05/26 02:27:43;;;;;;;10.83;4.10;;;;;;;18.95;61.88;101190.03;5037412;28;20405;-81
2023/05/26 02:30:09;;;;;;;8.73;3.67;;;;;;;18.97;61.84;101206.78;5053973;28;20385;-81
2023/05/26 02:32:36;;;;;;;12.55;3.90;;;;;;;18.83;62.30;101197.13;5047661;28;20396;-81
2023/05/26 02:35:03;;;;;;;10.20;3.92;;;;;;;18.83;62.30;101197.13;5031503;28;20858;-80
2023/05/26 02:37:29;;;;;;;13.77;4.10;;;;;;;18.75;62.56;101203.53;5049497;28;20446;-81
2023/05/26 02:39:55;;;;;;;9.05;3.90;;;;;;;18.72;62.62;101202.09;5054704;28;20380;-80
2023/05/26 02:42:21;;;;;;;8.13;3.60;;;;;;;18.66;62.81;101204.81;5053186;28;20397;-80
2023/05/26 02:44:46;;;;;;;6.97;3.53;;;;;;;18.62;63.03;101212.47;5048839;28;20542;-80
2023/05/26 02:47:12;;;;;;;7.35;3.80;;;;;;;18.79;62.24;101222.72;5050026;28;20388;-80
2023/05/26 02:49:37;;;;;;;11.27;3.63;;;;;;;18.84;62.09;101226.47;5038245;28;20406;-81
2023/05/26 02:52:03;;;;;;;9.17;3.97;;;;;;;18.81;62.05;101234.94;5050064;28;20396;-81
2023/05/26 02:54:28;;;;;;;7.57;3.53;;;;;;;18.95;61.33;101230.34;5051830;28;20390;-81
2023/05/26 02:56:54;;;;;;;12.15;3.55;;;;;;;19.12;60.91;101229.84;5049029;28;20752;-80
2023/05/26 02:59:20;;;;;;;10.60;3.80;;;;;;;19.28;60.33;101235.59;5053792;28;20790;-81
2023/05/26 03:01:45;;;;;;;9.23;4.10;;;;;;;19.31;60.16;101234.31;5052353;28;20400;-81
2023/05/26 03:04:11;;;;;;;11.50;3.67;;;;;;;19.24;60.28;101228.97;5049184;28;20772;-82
2023/05/26 03:06:36;;;;;;;8.70;3.80;;;;;;;19.14;60.58;101228.63;5052230;28;20399;-80
2023/05/26 03:09:02;;;;;;;8.60;3.97;;;;;;;19.13;60.64;101232.34;5048334;28;20461;-80
2023/05/26 03:11:27;;;;;;;9.30;4.00;;;;;;;19.21;60.40;101252.75;5042049;28;20397;-80
2023/05/26 03:13:53;;;;;;;8.43;3.70;;;;;;;19.15;60.60;101254.44;5048935;28;20834;-82
2023/05/26 03:16:19;;;;;;;12.60;4.33;;;;;;;19.30;60.12;101243.41;5051512;28;20386;-81
2023/05/26 03:18:45;;;;;;;12.50;4.37;;;;;;;19.44;59.73;101244.16;5044028;28;20401;-81
2023/05/26 03:21:10;;;;;;;11.87;4.10;;;;;;;19.49;59.72;101239.78;5047356;28;20386;-82
2023/05/26 03:23:36;;;;;;;10.63;3.90;;;;;;;19.55;59.48;101230.03;5048467;28;20471;-81
2023/05/26 03:26:01;;;;;;;11.90;3.87;;;;;;;19.60;59.45;101235.56;5040268;28;20405;-81
2023/05/26 03:28:27;;;;;;;12.03;4.17;;;;;;;19.67;59.23;101222.09;5054266;28;20408;-80
2023/05/26 03:30:53;;;;;;;9.60;3.80;;;;;;;19.77;59.02;101227.00;5052208;28;20468;-80
2023/05/26 03:33:18;;;;;;;9.73;4.00;;;;;;;19.85;59.06;101240.19;5046894;28;20394;-80
2023/05/26 03:35:44;;;;;;;11.32;4.25;;;;;;;19.86;59.01;101221.16;5048852;28;20399;-80
2023/05/26 03:38:10;;;;;;;9.02;3.97;;;;;;;19.91;58.82;101220.47;5061261;28;20855;-80
2023/05/26 03:40:35;;;;;;;11.27;4.27;;;;;;;19.95;58.65;101208.25;5058026;28;20388;-80
2023/05/26 03:43:04;;;;;;;11.73;4.60;;;;;;;20.02;58.75;101227.84;5048089;28;20378;-81
2023/05/26 03:45:29;;;;;;;9.55;3.97;;;;;;;20.13;58.58;101220.09;5035507;28;20937;-80
2023/05/26 03:47:55;;;;;;;8.27;3.90;;;;;;;20.11;58.44;101206.03;5038350;28;20409;-81
2023/05/26 03:50:20;;;;;;;8.63;4.17;;;;;;;20.05;58.48;101211.25;5047967;28;20465;-81
2023/05/26 03:52:46;;;;;;;8.47;4.10;;;;;;;20.05;58.57;101213.13;5040250;28;20389;-81
2023/05/26 03:55:12;;;;;;;10.10;3.75;;;;;;;20.05;58.68;101200.47;5055658;28;20442;-82
2023/05/26 03:57:38;;;;;;;7.68;3.67;;;;;;;20.03;58.58;101205.28;5044553;28;20401;-81
2023/05/26 04:00:10;;;;;;;7.47;3.83;;;;;;;19.98;58.71;101207.78;5037226;28;20440;-83
2023/05/26 04:02:35;;;;;;;10.05;4.18;;;;;;;20.02;58.64;101208.19;5038818;28;20866;-81
2023/05/26 04:05:01;;;;;;;8.27;3.70;;;;;;;19.96;58.74;101209.88;5048097;28;20503;-82
2023/05/26 04:07:26;;;;;;;8.03;4.10;;;;;;;20.09;58.48;101205.44;5042407;28;20447;-82
2023/05/26 04:09:52;;;;;;;10.07;3.80;;;;;;;20.10;58.26;101212.47;5043553;28;20446;-82
2023/05/26 04:12:17;;;;;;;8.90;3.60;;;;;;;20.16;58.24;101225.84;5042349;28;20456;-81
2023/05/26 04:14:43;;;;;;;12.53;3.30;;;;;;;20.48;60.71;101219.56;5044882;28;20406;-84
2023/05/26 04:17:08;;;;;;;9.87;3.60;;;;;;;20.47;59.38;101237.56;5050713;28;20412;-84
2023/05/26 04:19:34;;;;;;;11.40;3.57;;;;;;;20.66;60.81;101227.66;5040415;28;20392;-84
2023/05/26 04:21:59;;;;;;;9.20;3.55;;;;;;;21.14;61.20;101221.47;5041079;28;20807;-84
2023/05/26 04:24:26;;;;;;;5.87;3.00;;;;;;;21.26;59.88;101226.91;5039254;28;20394;-84
2023/05/26 04:26:52;;;;;;;10.30;4.85;;;;;;;21.20;59.07;101225.94;5052036;28;20403;-85
2023/05/26 04:29:20;;;;;;;13.00;4.00;;;;;;;21.35;58.97;101222.84;5045022;28;20435;-84
2023/05/26 04:31:46;;;;;;;6.90;3.60;;;;;;;21.48;58.65;101229.97;5042762;28;21047;-84
2023/05/26 04:34:12;;;;;;;14.10;4.55;;;;;;;21.64;58.00;101214.97;5046835;28;20415;-85
2023/05/26 04:36:40;;;;;;;13.93;6.88;;;;;;;21.47;56.99;101211.31;5039831;28;20429;-84
2023/05/26 04:39:06;;;;;;;10.73;4.65;;;;;;;21.32;57.16;101209.84;5044712;28;20386;-82
2023/05/26 04:41:32;;;;;;;8.68;3.80;;;;;;;21.38;57.64;101203.50;5038985;28;20482;-84
2023/05/26 04:43:59;;;;;;;10.85;5.28;;;;;;;21.34;57.15;101210.41;5041679;28;20385;-85
2023/05/26 04:46:24;;;;;;;12.43;5.68;;;;;;;21.31;57.30;101213.56;5038465;28;20398;-82
2023/05/26 04:48:52;;;;;;;9.50;4.63;;;;;;;21.27;57.18;101217.78;5035253;28;20406;-77
2023/05/26 04:51:18;;;;;;;9.30;4.00;;;;;;;21.41;57.28;101223.81;5045800;28;20403;-77
2023/05/26 04:53:43;;;;;;;8.67;3.70;;;;;;;21.60;57.04;101227.28;5038739;28;20390;-79
2023/05/26 04:56:10;;;;;;;7.88;4.00;;;;;;;21.78;56.94;101223.69;5051619;28;20404;-78
2023/05/26 04:58:36;;;;;;;8.60;3.53;;;;;;;21.88;56.70;101226.66;5051837;28;20477;-79
2023/05/26 05:01:02;;;;;;;10.57;4.53;;;;;;;22.06;56.37;101224.91;5040942;28;20821;-78
2023/05/26 05:03:34;;;;;;;7.35;3.90;;;;;;;22.15;55.65;101218.91;5043516;28;20395;-76
2023/05/26 05:06:00;;;;;;;7.75;3.85;;;;;;;22.17;55.05;101217.88;5049191;28;20487;-78
2023/05/26 05:08:26;;;;;;;9.55;4.15;;;;;;;21.83;55.12;101214.91;5052029;28;20478;-78
2023/05/26 05:10:52;;;;;;;8.87;4.30;;;;;;;22.04;56.00;101221.59;5035843;28;20398;-78
2023/05/26 05:13:17;;;;;;;11.55;4.20;;;;;;;22.19;54.83;101213.88;5044289;28;20822;-78
2023/05/26 05:15:43;;;;;;;10.20;4.60;;;;;;;22.36;55.13;101214.00;5047046;28;20478;-77
2023/05/26 05:18:08;;;;;;;9.95;4.40;;;;;;;22.56;54.90;101215.50;5052636;28;20381;-77
2023/05/26 05:20:34;;;;;;;9.00;4.10;;;;;;;22.38;54.46;101217.28;5036491;28;20483;-79
2023/05/26 05:23:00;;;;;;;7.43;4.28;;;;;;;22.48;54.96;101220.22;5047543;28;20810;-79
2023/05/26 05:25:25;;;;;;;12.33;5.83;;;;;;;22.51;53.93;101227.03;5043381;28;20873;-77
2023/05/26 05:27:51;;;;;;;6.50;3.70;;;;;;;22.21;54.22;101236.06;5053032;28;20863;-80
2023/05/26 05:30:17;;;;;;;8.90;4.70;;;;;;;22.14;54.41;101244.25;5030663;28;20432;-79
2023/05/26 05:32:43;;;;;;;10.77;4.50;;;;;;;22.01;54.38;101238.28;5024834;28;20392;-80
2023/05/26 05:35:10;;;;;;;7.63;3.90;;;;;;;21.82;55.00;101245.63;5026536;28;20719;-80
2023/05/26 05:37:36;;;;;;;15.20;5.05;;;;;;;22.09;54.83;101238.75;5027453;28;20437;-81
2023/05/26 05:40:02;;;;;;;10.33;4.97;;;;;;;22.04;54.22;101235.09;5018407;28;20457;-79
2023/05/26 05:42:28;;;;;;;8.20;4.28;;;;;;;21.89;54.51;101240.94;5034589;28;20738;-79
2023/05/26 05:44:53;;;;;;;7.30;4.10;;;;;;;21.87;54.91;101245.75;5033248;28;20401;-79
2023/05/26 05:47:21;;;;;;;9.87;4.40;;;;;;;22.11;54.96;101247.44;5030628;28;20388;-80
2023/05/26 05:49:47;;;;;;;11.50;4.67;;;;;;;22.02;54.71;101259.66;5023315;28;20838;-80
2023/05/26 05:52:14;;;;;;;10.38;4.70;;;;;;;21.76;55.20;101258.19;5030040;28;20383;-80
2023/05/26 05:54:40;;;;;;;8.93;4.70;;;;;;;21.80;55.62;101259.34;5027970;28;20395;-80
2023/05/26 05:57:05;;;;;;;9.13;3.97;;;;;;;21.78;55.29;101266.88;5034132;28;20392;-80
2023/05/26 05:59:31;;;;;;;7.57;4.03;;;;;;;21.71;55.44;101266.16;5032466;28;20441;-81
2023/05/26 06:01:57;;;;;;;8.70;4.30;;;;;;;21.60;55.63;101266.94;5035664;28;20478;-80
2023/05/26 06:04:22;;;;;;;9.55;4.32;;;;;;;21.53;55.78;101262.44;5052069;28;20409;-81
2023/05/26 06:06:47;;;;;;;9.40;4.10;;;;;;;21.47;55.92;101262.56;5038582;28;20389;-80
2023/05/26 06:09:13;;;;;;;7.43;4.03;;;;;;;21.31;56.54;101256.72;5056734;28;20412;-80
2023/05/26 06:11:38;;;;;;;11.77;4.75;;;;;;;21.45;56.28;101253.84;5044296;28;20387;-82
2023/05/26 06:14:04;;;;;;;8.27;4.33;;;;;;;21.52;56.14;101239.25;5035623;28;20452;-79
2023/05/26 06:16:31;;;;;;;9.23;4.50;;;;;;;21.46;56.18;101250.94;5041623;28;20413;-82
2023/05/26 06:18:56;;;;;;;8.95;4.50;;;;;;;21.25;56.89;101248.69;5034994;28;20853;-83
2023/05/26 06:21:22;;;;;;;9.82;4.85;;;;;;;21.32;56.76;101252.97;5056527;28;20410;-82
2023/05/26 06:23:49;;;;;;;10.20;4.40;;;;;;;21.46;56.46;101272.50;5057508;28;20430;-84
2023/05/26 06:26:14;;;;;;;7.88;4.45;;;;;;;21.73;55.90;101264.88;5039878;28;20472;-82
2023/05/26 06:28:39;;;;;;;11.20;4.83;;;;;;;21.65;56.02;101267.06;5030051;28;20443;-80
2023/05/26 06:31:05;;;;;;;12.23;5.00;;;;;;;21.68;56.03;101269.28;5028822;28;20397;-81
2023/05/26 06:33:31;;;;;;;10.30;4.72;;;;;;;21.93;55.66;101263.72;5028180;28;20393;-82
2023/05/26 06:35:56;;;;;;;9.40;4.70;;;;;;;22.12;55.14;101273.38;5049421;28;20521;-81
2023/05/26 06:38:22;;;;;;;6.78;4.18;;;;;;;22.38;54.92;101270.47;5038968;28;20407;-81
2023/05/26 06:40:47;;;;;;;7.23;4.67;;;;;;;22.58;54.17;101270.13;5035669;28;20419;-81
2023/05/26 06:43:13;;;;;;;5.05;4.40;;;;;;;22.56;54.17;101274.94;5042222;28;20388;-83
2023/05/26 06:45:39;;;;;;;7.67;3.97;;;;;;;22.53;54.29;101273.53;5043999;28;20456;-81
2023/05/26 06:48:05;;;;;;;8.23;4.15;;;;;;;22.44;54.57;101278.47;5049379;28;20529;-81
2023/05/26 06:50:31;;;;;;;8.15;4.57;;;;;;;22.54;54.56;101272.47;5051026;28;20396;-82
2023/05/26 06:52:56;;;;;;;7.87;4.40;;;;;;;22.67;54.08;101272.25;5038333;28;20395;-81
2023/05/26 06:55:21;;;;;;;9.68;4.43;;;;;;;22.83;53.59;101273.41;5036234;28;20450;-83
2023/05/26 06:57:47;;;;;;;7.07;4.20;;;;;;;22.81;53.63;101271.97;5045835;28;20405;-82
2023/05/26 07:00:13;;;;;;;8.43;4.33;;;;;;;23.03;53.19;101273.00;5043282;28;20390;-82
2023/05/26 07:02:40;;;;;;;6.05;4.78;;;;;;;23.31;53.30;101271.38;5044027;28;20489;-84
2023/05/26 07:05:07;;;;;;;6.23;3.97;;;;;;;23.24;52.69;101270.72;5051971;28;20393;-84
2023/05/26 07:07:35;;;;;;;8.10;4.20;;;;;;;23.32;52.36;101258.66;5044551;28;20388;-85
2023/05/26 07:10:01;;;;;;;9.45;4.22;;;;;;;23.54;52.07;101267.75;5045917;28;20960;-83
2023/05/26 07:12:26;;;;;;;9.70;4.90;;;;;;;23.91;51.45;101263.81;5031914;28;20382;-81
2023/05/26 07:14:52;;;;;;;10.48;4.43;;;;;;;24.10;50.91;101262.50;5036156;28;20890;-82
2023/05/26 07:17:17;;;;;;;12.47;4.57;;;;;;;24.18;50.68;101262.09;5026773;28;20390;-83
2023/05/26 07:19:43;;;;;;;11.77;5.00;;;;;;;24.21;50.68;101260.75;5037227;28;20397;-82
2023/05/26 07:22:08;;;;;;;8.77;4.30;;;;;;;24.50;50.22;101268.75;5047597;28;20903;-81
2023/05/26 07:24:34;;;;;;;10.93;4.47;;;;;;;24.57;49.80;101267.53;5026110;28;20410;-81
2023/05/26 07:26:59;;;;;;;12.80;4.80;;;;;;;24.82;49.39;101270.84;5036445;28;20384;-82
2023/05/26 07:29:26;;;;;;;9.85;4.65;;;;;;;24.85;49.40;101276.59;5042980;28;20494;-81
2023/05/26 07:31:51;;;;;;;9.25;4.40;;;;;;;24.76;49.80;101281.63;5028027;28;20390;-77
2023/05/26 07:34:17;;;;;;;9.23;4.40;;;;;;;25.12;49.07;101281.22;5033814;28;20739;-77
2023/05/26 07:36:43;;;;;;;8.02;4.65;;;;;;;25.17;48.92;101275.88;5039808;28;20383;-79
2023/05/26 07:39:09;;;;;;;10.10;4.30;;;;;;;25.34;48.75;101281.25;5031970;28;20475;-79
2023/05/26 07:41:35;;;;;;;6.03;4.10;;;;;;;25.62;48.06;101273.91;5032847;28;21027;-82
2023/05/26 07:44:00;;;;;;;7.85;3.90;;;;;;;25.60;48.29;101268.75;5032786;28;20908;-80
2023/05/26 07:46:26;;;;;;;11.00;5.17;;;;;;;25.80;48.21;101264.59;5033071;28;20378;-79
2023/05/26 07:48:53;;;;;;;10.10;4.30;;;;;;;25.86;48.01;101261.66;5033807;28;20418;-78
2023/05/26 07:51:19;;;;;;;7.38;4.10;;;;;;;26.07;47.53;101265.41;5048919;28;20389;-79
2023/05/26 07:53:44;;;;;;;6.32;4.40;;;;;;;26.08;47.02;101261.56;5036745;28;20383;-79
2023/05/26 07:56:10;;;;;;;9.77;4.70;;;;;;;26.01;47.06;101266.41;5041863;28;20405;-79
2023/05/26 07:58:38;;;;;;;5.70;4.13;;;;;;;25.96;46.82;101249.25;5036863;28;20388;-79
2023/05/26 08:01:06;;;;;;;9.60;4.50;;;;;;;26.18;46.96;101255.41;5032313;28;20390;-78
2023/05/26 08:03:32;;;;;;;7.55;4.22;;;;;;;26.38;45.98;101254.72;5036599;28;20451;-78
2023/05/26 08:05:58;;;;;;;9.40;4.30;;;;;;;26.61;45.97;101248.06;5032165;28;20708;-78
2023/05/26 08:08:23;;;;;;;7.47;4.07;;;;;;;26.74;45.45;101260.38;5026163;28;20429;-80
2023/05/26 08:10:50;;;;;;;11.80;4.07;;;;;;;26.67;45.73;101257.88;5038392;28;20370;-82
2023/05/26 08:13:16;;;;;;;8.00;4.65;;;;;;;26.84;45.23;101254.97;5035132;28;20527;-80
2023/05/26 08:15:41;;;;;;;9.68;4.47;;;;;;;26.90;45.33;101258.50;5049311;28;20378;-78
2023/05/26 08:18:07;;;;;;;7.27;4.33;;;;;;;27.09;45.16;101259.66;5037807;28;20369;-79
2023/05/26 08:20:32;;;;;;;9.23;3.93;;;;;;;27.14;44.95;101258.88;5036033;28;20386;-79
2023/05/26 08:22:58;;;;;;;8.05;4.15;;;;;;;27.03;44.75;101251.78;5036493;28;20903;-77
2023/05/26 08:25:24;;;;;;;8.43;4.10;;;;;;;27.08;45.15;101247.16;5040147;28;20545;-81
2023/05/26 08:27:50;;;;;;;10.02;4.47;;;;;;;27.35;44.52;101259.78;5052866;28;20397;-82
2023/05/26 08:30:15;;;;;;;6.60;3.70;;;;;;;27.38;44.25;101242.06;5039231;28;20374;-80
2023/05/26 08:32:41;;;;;;;4.40;3.60;;;;;;;27.51;43.80;101246.19;5036684;28;20405;-79
2023/05/26 08:35:07;;;;;;;5.90;3.42;;;;;;;27.39;43.49;101243.72;5034734;28;20778;-79
2023/05/26 08:37:32;;;;;;;8.07;4.10;;;;;;;27.41;43.69;101234.19;5034630;28;20385;-78
2023/05/26 08:39:58;;;;;;;6.93;3.43;;;;;;;27.42;43.54;101238.56;5035560;28;20444;-78
2023/05/26 08:42:29;;;;;;;10.93;4.18;;;;;;;27.55;43.60;101234.47;5034217;28;20719;-78
2023/05/26 08:44:57;;;;;;;6.00;3.67;;;;;;;27.52;43.62;101232.28;5034134;28;20386;-80
2023/05/26 08:47:23;;;;;;;5.05;3.58;;;;;;;27.52;43.23;101229.56;5050289;28;20398;-78
2023/05/26 08:49:54;;;;;;;8.50;4.03;;;;;;;27.40;43.50;101227.09;5034103;28;20398;-78
2023/05/26 08:52:22;;;;;;;9.57;3.97;;;;;;;27.45;43.20;101231.75;5030093;28;20415;-79
2023/05/26 08:54:48;;;;;;;9.40;4.20;;;;;;;27.33;43.30;101226.53;5016896;28;20384;-80
2023/05/26 08:57:15;;;;;;;7.50;3.80;;;;;;;27.22;43.29;101230.31;5035498;28;20386;-79
2023/05/26 08:59:41;;;;;;;6.13;3.33;;;;;;;27.27;43.59;101224.91;5035002;28;20390;-79
2023/05/26 09:02:08;;;;;;;5.72;3.60;;;;;;;27.32;43.53;101233.09;5039441;28;20379;-80
2023/05/26 09:04:34;;;;;;;6.80;3.85;;;;;;;27.34;43.28;101225.47;5037947;28;20474;-78
2023/05/26 09:07:00;;;;;;;6.82;3.40;;;;;;;27.26;42.79;101215.94;5036328;28;20375;-78
2023/05/26 09:09:26;;;;;;;8.38;3.40;;;;;;;27.27;43.07;101212.09;5034529;28;20890;-78
2023/05/26 09:11:51;;;;;;;8.57;3.90;;;;;;;27.16;43.12;101215.88;5035502;28;20862;-78
2023/05/26 09:14:20;;;;;;;7.22;4.00;;;;;;;27.29;42.78;101213.75;5034135;28;20402;-79
2023/05/26 09:16:46;;;;;;;7.80;4.00;;;;;;;27.22;42.86;101205.81;5031510;28;20390;-79
2023/05/26 09:19:14;;;;;;;8.53;3.77;;;;;;;27.11;42.69;101201.44;5043994;28;20784;-79
2023/05/26 09:21:47;;;;;;;7.63;3.90;;;;;;;27.02;42.97;101204.69;5055895;28;20395;-80
2023/05/26 09:24:17;;;;;;;5.70;3.30;;;;;;;26.96;42.75;101197.59;5027585;28;20396;-78
2023/05/26 09:26:45;;;;;;;7.33;4.17;;;;;;;26.86;43.43;101200.28;5037298;28;20475;-78
2023/05/26 09:29:10;;;;;;;6.72;3.95;;;;;;;26.91;43.24;101202.22;5043279;28;20412;-79
2023/05/26 09:31:37;;;;;;;9.00;4.18;;;;;;;26.97;43.27;101199.22;5053327;28;20865;-80
2023/05/26 09:34:03;;;;;;;9.93;4.40;;;;;;;27.01;43.24;101199.50;5053111;28;20416;-78
2023/05/26 09:36:31;;;;;;;7.22;3.92;;;;;;;26.94;43.56;101191.63;5054071;28;20408;-79
2023/05/26 09:39:00;;;;;;;5.55;3.80;;;;;;;26.92;43.70;101196.50;5052684;28;20467;-78
2023/05/26 09:41:36;;;;;;;9.57;4.20;;;;;;;26.86;43.84;101187.50;5054568;28;20849;-77
2023/05/26 09:44:14;;;;;;;6.20;4.28;;;;;;;26.92;43.92;101190.25;5008835;28;20407;-77
2023/05/26 09:46:41;;;;;;;7.73;4.43;;;;;;;26.86;44.45;101182.06;5038683;28;20432;-78
2023/05/26 09:49:09;;;;;;;8.17;4.70;;;;;;;26.89;44.51;101178.81;5034123;28;20406;-79
2023/05/26 09:51:35;;;;;;;5.90;4.22;;;;;;;26.95;44.17;101189.72;5018070;28;20732;-79
2023/05/26 09:54:00;;;;;;;10.45;4.60;;;;;;;26.83;44.89;101182.63;5035264;28;20865;-80
2023/05/26 09:56:31;;;;;;;7.63;4.33;;;;;;;26.94;44.96;101183.47;5034232;28;20382;-79
2023/05/26 09:58:58;;;;;;;10.13;4.75;;;;;;;26.98;44.69;101181.81;5036372;28;20378;-78
2023/05/26 10:01:25;;;;;;;6.80;4.60;;;;;;;26.89;44.89;101189.69;5037938;28;20382;-79
2023/05/26 10:03:51;;;;;;;7.13;4.40;;;;;;;26.86;44.74;101186.69;5037028;28;20466;-79
2023/05/26 10:06:18;;;;;;;8.15;4.50;;;;;;;26.91;44.90;101185.91;5036696;28;20717;-79
2023/05/26 10:08:50;;;;;;;7.10;4.90;;;;;;;26.82;45.16;101175.53;5035674;28;20588;-79
2023/05/26 10:11:17;;;;;;;15.98;5.13;;;;;;;26.92;45.32;101179.34;5037243;28;20480;-81
2023/05/26 10:13:44;;;;;;;9.23;5.05;;;;;;;27.09;45.24;101182.66;5037039;28;20410;-82
2023/05/26 10:16:10;;;;;;;8.02;4.90;;;;;;;27.20;44.85;101176.13;5037870;28;20444;-79
2023/05/26 10:18:36;;;;;;;6.43;4.30;;;;;;;27.31;45.11;101165.31;5036222;28;20383;-78
2023/05/26 10:21:06;;;;;;;7.93;4.60;;;;;;;27.31;45.01;101163.38;5030541;28;20498;-79
2023/05/26 10:23:44;;;;;;;8.65;5.07;;;;;;;27.46;44.73;101165.31;5012817;28;21396;-80
2023/05/26 10:26:22;;;;;;;6.15;4.80;;;;;;;27.51;43.79;101159.84;5012692;28;20394;-78
2023/05/26 10:28:56;;;;;;;11.10;4.90;;;;;;;27.62;43.83;101153.31;5011336;28;20488;-79
2023/05/26 10:31:29;;;;;;;7.85;4.72;;;;;;;27.80;43.66;101142.94;5033363;28;20394;-77
2023/05/26 10:33:56;;;;;;;7.70;4.65;;;;;;;27.79;43.41;101138.59;5034064;28;20389;-79
2023/05/26 10:36:21;;;;;;;7.15;4.30;;;;;;;27.92;43.60;101139.94;5034288;28;20786;-79
2023/05/26 10:38:49;;;;;;;7.40;4.50;;;;;;;27.99;43.43;101129.56;5035915;28;20382;-79
2023/05/26 10:42:00;;;;;;;9.40;4.90;;;;;;;27.93;42.99;101131.50;5016045;28;20442;-78
2023/05/26 10:44:44;;;;;;;8.38;4.07;;;;;;;27.73;42.58;101132.34;5014408;28;20434;-79
2023/05/26 10:47:17;;;;;;;7.75;4.38;;;;;;;27.97;42.29;101123.59;5013451;28;20895;-80
2023/05/26 10:49:58;;;;;;;7.63;3.95;;;;;;;27.97;41.69;101121.69;5012523;28;20498;-78
2023/05/26 10:52:45;;;;;;;7.60;4.17;;;;;;;27.97;41.49;101121.69;5013619;28;20458;-79
2023/05/26 10:55:28;;;;;;;7.45;4.00;;;;;;;28.11;41.77;101124.63;5014432;28;20480;-78
2023/05/26 10:57:53;;;;;;;9.13;4.20;;;;;;;28.21;41.14;101115.59;5014895;28;20439;-79
2023/05/26 11:00:25;;;;;;;6.85;3.92;;;;;;;28.29;40.85;101114.19;4996332;28;20396;-78
2023/05/26 11:02:51;;;;;;;10.80;4.05;;;;;;;28.49;40.90;101110.56;5024213;28;20421;-80
2023/05/26 11:05:33;;;;;;;5.97;3.65;;;;;;;28.72;40.27;101103.63;5031396;28;20421;-79
2023/05/26 11:07:59;;;;;;;8.50;3.75;;;;;;;28.77;39.52;101089.97;5038103;28;20402;-78
2023/05/26 11:10:25;;;;;;;6.63;3.90;;;;;;;28.89;40.04;101097.81;5034316;28;20851;-79
2023/05/26 11:12:54;;;;;;;6.85;3.88;;;;;;;28.91;39.81;101081.94;5032478;28;20532;-78
2023/05/26 11:15:39;;;;;;;8.35;4.10;;;;;;;29.01;38.97;101083.78;5032670;28;20466;-79
2023/05/26 11:18:08;;;;;;;6.43;3.70;;;;;;;28.72;39.45;101081.81;5025532;28;20873;-78
2023/05/26 11:20:35;;;;;;;8.85;3.90;;;;;;;28.91;39.28;101074.56;5022620;28;20384;-79
2023/05/26 11:23:00;;;;;;;7.82;3.72;;;;;;;29.14;38.98;101078.50;5024657;28;20542;-81